Terminal Aerodrome Forecast
Issued by NWS

Home | Current Version | Previous Version | Graphics & Text | Print | Product List | Glossary On
Versions: 1 2 3 4 5 6 7 8 9 10 11 12 13 14 15 16 17 18
000
FTUS43 KGRB 271124
TAFATW
TAF
KATW 271124Z 2712/2812 32003KT P6SM OVC003
      TEMPO 2712/2715 1/2SM FG SCT003 OVC012
     FM271500 VRB03KT P6SM OVC008
     FM272000 04004KT P6SM OVC010
     FM280000 04004KT P6SM OVC007
     FM280400 02004KT P6SM BKN013=

USA.gov is the U.S. government's official web portal to all federal, state and local government web resources and services.